Huvudsida
METAR-TAF:

METAR-TAF

Flygplatser :

Karachi, Pakistan

latitud: 24-54N, longitud: 067-08E, höjd: 21 m

Aktuellt väderrapport

Denna rapport gjordes för 40 minuter sedan, klockan 13:55 UTC
Vind 4 kt från väst
Temperatur 28°C
Fuktighet 40%
Tryck 1014 hPa
Sikt: 5000 m
torrdis

METAR: OPKC 161355Z 27004KT 5000 HZ NSC 28/13 Q1014 NOSIG

Tid: 19:35 (14:35 UTC)

Väderprognos

Denna rapport gjordes för 4 timmar och 35 minuter sedan, klockan 10:00 UTC
Prognos gäller från 16 kl. 12 UTC till 17 kl. 18 UTC
Vind 5 kt från väst i byarna ända upp till 15 kt
Sikt: 5000 m
Spridda moln på en höjd av 3000 ft
torrdis
Temporärt
från 17 kl. 00 UTC till 17 kl. 04 UTC
Vind 5 kt från väst
Sikt: 2500 m
rök
Från 17 kl. 0600 UTC
Vind 5 kt från väst i byarna ända upp till 15 kt
Sikt: 6000 m

TAF: OPKC 161000Z 1612/1718 26005G15KT 5000 HZ SCT030 TEMPO 1700/1704 28005KT 2500 FU NSC FM170600 26005G15KT 6000 NSC

Aktuella väderrapporter och prognoser från 4000 flygplatser (METAR- och TAF-rapporter).

De tillgängliga stationerna syns som gula och röda prickar på kartan.

För musen över prickarna för att se namnen på stationerna.

Klicka sedan för att få väderrapporter och prognoser.

För att ändra kartan: Klicka på de gröna knapparna med ett svart kors på för att zooma in; den gröna knappen med ett streck på för att zooma ut; eller på de gröna pilarna för angränsande kartor.


METAR-TAF: